CYOW/YOW METAR and TAF weather

Enter ICAO airport designator
Station Type Date Time Source
CYOW METAR 2018/07/21 04:00 UTC NOAA

CYOW 210400Z 13004KT 15SM FEW250 20/15 A3002 RMK CI1 SLP165 DENSITY ALT 1000FT


Station Type Date Time Source
CYOW Decoded METAR 2018/07/21 04:00 UTC NOAA

Ottawa Int'L. Ont., Canada (CYOW) 45-19N 075-40W 114M
Jul 21, 2018 - 12:00 AM EDT / 2018.07.21 0400 UTC
Wind: from the SE (130 degrees) at 5 MPH (4 KT):0
Visibility: 15 mile(s):0
Sky conditions: mostly clear
Temperature: 68 F (20 C)
Dew Point: 59 F (15 C)
Relative Humidity: 72%
Pressure (altimeter): 30.02 in. Hg (1016 hPa)
ob: CYOW 210400Z 13004KT 15SM FEW250 20/15 A3002 RMK CI1 SLP165 DENSITY ALT 1000FT
cycle: 4

Station Type Date Time Source
CYOW TAF 2018/07/21 03:45 UTC NOAA

TAF TAF CYOW 210241Z 2103/2124 09008KT P6SM FEW250
BECMG 2104/2106 12006KT
BECMG 2110/2112 12005KT
RMK NXT FCST BY 210600Z


Example: see airport list